Accueil
METAR-TAF:

METAR-TAF

Aéroports :

Aéroport de Valladolid

Valladolid, Espagne

latitude: 41-43N, longitude: 004-51W, altitude: 849 m

Observation

Le bulletin a été fait il y a 9 heures et 9 minutes, à 19:30 UTC
Vent 3 kt de nord/nord-est, variant entre nord/nord-ouest et nord-est
Température 13°C
Humidité 62%
Pression 1022 hPa
Visibilité 10 km ou plus
pas de nuages en-dessous de 1500 mètres et pas de cumulonimbus.

METAR: LEVD 211930Z 03003KT 340V050 CAVOK 13/06 Q1022

Heure: 06:39 (04:39 UTC)

Prévision

Le bulletin a été fait il y a 5 heures et 39 minutes, à 23:00 UTC
Prévision valable du 22 à 00 UTC au 22 à 24 UTC
Vent 6 kt de nord/nord-est
Visibilité 10 km ou plus
pas de nuages en-dessous de 1500 mètres et pas de cumulonimbus.
Probabilité 30% :
Temporairement
du 22 à 03 UTC au 22 à 09 UTC
Visibilité: 3000 m
brume

TAF: LEVD 212300Z 2200/2224 03006KT CAVOK TX20/2214Z TN08/2207Z PROB30 TEMPO 2203/2209 3000 BR

Observations et prévisions météorologiques de plus de 4000 aéroports (messages METAR et TAF).

Les stations disponibles sont représentées par des disques jaunes et rouges sur la carte.

Passer la souris dessus pour voir le nom de la station.

Cliquer dessus pour voir les observations et prévisions météorologiques.

Pour changer de carte: cliquez sur les boutons verts avec une croix noire pour zoomer, sur le bouton vert avec un tiret pour effectuer un zoom arrière, ou sur les flèches vertes pour les cartes adjacentes.


METAR-TAF: